sensor_id;sensor_type;location;lat;lon;timestamp;temperature;humidity
37289;DHT22;23174;49.462;11.000;2023-06-14T00:01:56;19.20;95.00
37289;DHT22;23174;49.462;11.000;2023-06-14T00:03:56;19.10;95.00
37289;DHT22;23174;49.462;11.000;2023-06-14T00:05:57;19.10;95.20
37289;DHT22;23174;49.462;11.000;2023-06-14T00:07:57;19.20;95.20
37289;DHT22;23174;49.462;11.000;2023-06-14T00:10:00;19.10;95.40
37289;DHT22;23174;49.462;11.000;2023-06-14T00:12:01;19.10;95.50
37289;DHT22;23174;49.462;11.000;2023-06-14T00:14:01;19.20;95.70
37289;DHT22;23174;49.462;11.000;2023-06-14T00:16:04;19.00;95.70
37289;DHT22;23174;49.462;11.000;2023-06-14T00:18:04;19.10;95.90
37289;DHT22;23174;49.462;11.000;2023-06-14T00:20:05;19.10;96.10
37289;DHT22;23174;49.462;11.000;2023-06-14T00:22:06;19.10;96.00
37289;DHT22;23174;49.462;11.000;2023-06-14T00:24:07;19.00;96.10
37289;DHT22;23174;49.462;11.000;2023-06-14T00:26:08;19.00;96.30
37289;DHT22;23174;49.462;11.000;2023-06-14T00:28:08;19.00;96.50
37289;DHT22;23174;49.462;11.000;2023-06-14T00:30:09;19.00;96.60
37289;DHT22;23174;49.462;11.000;2023-06-14T00:32:10;19.00;96.70
37289;DHT22;23174;49.462;11.000;2023-06-14T00:34:10;19.00;96.80
37289;DHT22;23174;49.462;11.000;2023-06-14T00:36:11;18.90;97.20
37289;DHT22;23174;49.462;11.000;2023-06-14T00:38:12;18.90;97.30
37289;DHT22;23174;49.462;11.000;2023-06-14T00:40:12;18.90;97.30
37289;DHT22;23174;49.462;11.000;2023-06-14T00:42:23;18.90;97.50
37289;DHT22;23174;49.462;11.000;2023-06-14T00:44:24;18.90;97.60
37289;DHT22;23174;49.462;11.000;2023-06-14T00:46:25;18.90;97.60
37289;DHT22;23174;49.462;11.000;2023-06-14T00:48:26;19.00;97.60
37289;DHT22;23174;49.462;11.000;2023-06-14T00:50:28;18.90;97.70
37289;DHT22;23174;49.462;11.000;2023-06-14T00:52:29;18.90;97.60
37289;DHT22;23174;49.462;11.000;2023-06-14T00:54:32;18.90;97.60
37289;DHT22;23174;49.462;11.000;2023-06-14T00:56:33;19.00;97.70
37289;DHT22;23174;49.462;11.000;2023-06-14T00:58:33;18.90;97.80
37289;DHT22;23174;49.462;11.000;2023-06-14T01:00:34;18.80;98.20
37289;DHT22;23174;49.462;11.000;2023-06-14T01:02:38;18.70;98.60
37289;DHT22;23174;49.462;11.000;2023-06-14T01:04:39;18.80;98.70
37289;DHT22;23174;49.462;11.000;2023-06-14T01:07:02;18.80;98.30
37289;DHT22;23174;49.462;11.000;2023-06-14T01:09:20;18.70;98.70
37289;DHT22;23174;49.462;11.000;2023-06-14T01:11:30;18.70;98.60
37289;DHT22;23174;49.462;11.000;2023-06-14T01:13:40;18.70;98.50
37289;DHT22;23174;49.462;11.000;2023-06-14T01:15:43;18.60;98.70
37289;DHT22;23174;49.462;11.000;2023-06-14T01:17:45;18.60;98.90
37289;DHT22;23174;49.462;11.000;2023-06-14T01:19:47;18.70;98.80
37289;DHT22;23174;49.462;11.000;2023-06-14T01:21:47;18.70;98.70
37289;DHT22;23174;49.462;11.000;2023-06-14T01:23:52;18.60;99.00
37289;DHT22;23174;49.462;11.000;2023-06-14T01:25:55;18.60;99.10
37289;DHT22;23174;49.462;11.000;2023-06-14T01:28:01;18.60;99.10
37289;DHT22;23174;49.462;11.000;2023-06-14T01:30:03;18.60;99.30
37289;DHT22;23174;49.462;11.000;2023-06-14T01:32:06;18.50;99.40
37289;DHT22;23174;49.462;11.000;2023-06-14T01:34:07;18.50;99.50
37289;DHT22;23174;49.462;11.000;2023-06-14T01:36:09;18.60;99.50
37289;DHT22;23174;49.462;11.000;2023-06-14T01:38:10;18.60;99.60
37289;DHT22;23174;49.462;11.000;2023-06-14T01:40:11;18.50;99.60
37289;DHT22;23174;49.462;11.000;2023-06-14T01:42:13;18.40;99.70
37289;DHT22;23174;49.462;11.000;2023-06-14T01:44:14;18.40;99.90
37289;DHT22;23174;49.462;11.000;2023-06-14T01:46:16;18.40;99.80
37289;DHT22;23174;49.462;11.000;2023-06-14T01:48:17;18.40;99.90
37289;DHT22;23174;49.462;11.000;2023-06-14T01:50:20;18.40;99.90
37289;DHT22;23174;49.462;11.000;2023-06-14T01:52:20;18.40;99.90
37289;DHT22;23174;49.462;11.000;2023-06-14T01:54:22;18.40;99.90
37289;DHT22;23174;49.462;11.000;2023-06-14T01:56:23;18.40;99.90
37289;DHT22;23174;49.462;11.000;2023-06-14T01:58:24;18.40;99.90
37289;DHT22;23174;49.462;11.000;2023-06-14T02:00:24;18.30;99.90
37289;DHT22;23174;49.462;11.000;2023-06-14T02:02:25;18.30;99.90
37289;DHT22;23174;49.462;11.000;2023-06-14T02:04:25;18.30;99.90
37289;DHT22;23174;49.462;11.000;2023-06-14T02:06:26;18.20;99.90
37289;DHT22;23174;49.462;11.000;2023-06-14T02:08:28;18.30;99.90
37289;DHT22;23174;49.462;11.000;2023-06-14T02:10:28;18.30;99.90
37289;DHT22;23174;49.462;11.000;2023-06-14T02:12:29;18.20;99.90
37289;DHT22;23174;49.462;11.000;2023-06-14T02:14:30;18.20;99.90
37289;DHT22;23174;49.462;11.000;2023-06-14T02:16:30;18.00;99.90
37289;DHT22;23174;49.462;11.000;2023-06-14T02:18:31;18.10;99.90
37289;DHT22;23174;49.462;11.000;2023-06-14T02:20:32;18.10;99.90
37289;DHT22;23174;49.462;11.000;2023-06-14T02:22:33;18.00;99.90
37289;DHT22;23174;49.462;11.000;2023-06-14T02:24:33;18.00;99.90
37289;DHT22;23174;49.462;11.000;2023-06-14T02:26:34;17.90;99.90
37289;DHT22;23174;49.462;11.000;2023-06-14T02:28:34;17.90;99.90
37289;DHT22;23174;49.462;11.000;2023-06-14T02:30:35;18.00;99.90
37289;DHT22;23174;49.462;11.000;2023-06-14T02:32:36;17.80;99.90
37289;DHT22;23174;49.462;11.000;2023-06-14T02:34:36;17.80;99.90
37289;DHT22;23174;49.462;11.000;2023-06-14T02:36:37;17.80;99.90
37289;DHT22;23174;49.462;11.000;2023-06-14T02:38:41;17.80;99.90
37289;DHT22;23174;49.462;11.000;2023-06-14T02:40:42;17.80;99.90
37289;DHT22;23174;49.462;11.000;2023-06-14T02:42:42;17.80;99.90
37289;DHT22;23174;49.462;11.000;2023-06-14T02:44:43;17.70;99.90
37289;DHT22;23174;49.462;11.000;2023-06-14T02:46:45;17.70;99.90
37289;DHT22;23174;49.462;11.000;2023-06-14T02:48:46;17.70;99.90
37289;DHT22;23174;49.462;11.000;2023-06-14T02:50:47;17.60;99.90
37289;DHT22;23174;49.462;11.000;2023-06-14T02:52:47;17.50;99.90
37289;DHT22;23174;49.462;11.000;2023-06-14T02:54:48;17.50;99.90
37289;DHT22;23174;49.462;11.000;2023-06-14T02:56:48;17.50;99.90
37289;DHT22;23174;49.462;11.000;2023-06-14T02:58:49;17.60;99.90
37289;DHT22;23174;49.462;11.000;2023-06-14T03:00:49;17.60;99.90
37289;DHT22;23174;49.462;11.000;2023-06-14T03:02:50;17.60;99.90
37289;DHT22;23174;49.462;11.000;2023-06-14T03:04:51;17.60;99.90
37289;DHT22;23174;49.462;11.000;2023-06-14T03:06:52;17.60;99.90
37289;DHT22;23174;49.462;11.000;2023-06-14T03:08:54;17.70;99.90
37289;DHT22;23174;49.462;11.000;2023-06-14T03:10:55;17.60;99.90
37289;DHT22;23174;49.462;11.000;2023-06-14T03:12:56;17.60;99.90
37289;DHT22;23174;49.462;11.000;2023-06-14T03:14:56;17.60;99.90
37289;DHT22;23174;49.462;11.000;2023-06-14T03:16:57;17.60;99.90
37289;DHT22;23174;49.462;11.000;2023-06-14T03:18:57;17.50;99.90
37289;DHT22;23174;49.462;11.000;2023-06-14T03:20:58;17.50;99.90
37289;DHT22;23174;49.462;11.000;2023-06-14T03:23:00;17.40;99.90
37289;DHT22;23174;49.462;11.000;2023-06-14T03:25:01;17.40;99.90
37289;DHT22;23174;49.462;11.000;2023-06-14T03:27:04;17.30;99.90
37289;DHT22;23174;49.462;11.000;2023-06-14T03:29:05;17.20;99.90
37289;DHT22;23174;49.462;11.000;2023-06-14T03:31:05;17.20;99.90
37289;DHT22;23174;49.462;11.000;2023-06-14T03:33:06;17.30;99.90
37289;DHT22;23174;49.462;11.000;2023-06-14T03:35:07;17.30;99.90
37289;DHT22;23174;49.462;11.000;2023-06-14T03:37:08;17.30;99.90
37289;DHT22;23174;49.462;11.000;2023-06-14T03:39:08;17.30;99.90
37289;DHT22;23174;49.462;11.000;2023-06-14T03:41:09;17.30;99.90
37289;DHT22;23174;49.462;11.000;2023-06-14T03:43:10;17.30;99.90
37289;DHT22;23174;49.462;11.000;2023-06-14T03:45:10;17.30;99.90
37289;DHT22;23174;49.462;11.000;2023-06-14T03:47:11;17.30;99.90
37289;DHT22;23174;49.462;11.000;2023-06-14T03:49:12;17.30;99.90
37289;DHT22;23174;49.462;11.000;2023-06-14T03:51:12;17.30;99.90
37289;DHT22;23174;49.462;11.000;2023-06-14T03:53:13;17.40;99.90
37289;DHT22;23174;49.462;11.000;2023-06-14T03:55:13;17.50;99.90
37289;DHT22;23174;49.462;11.000;2023-06-14T03:57:15;17.40;99.90
37289;DHT22;23174;49.462;11.000;2023-06-14T03:59:15;17.50;99.90
37289;DHT22;23174;49.462;11.000;2023-06-14T04:01:15;17.40;99.90
37289;DHT22;23174;49.462;11.000;2023-06-14T04:03:16;17.40;99.90
37289;DHT22;23174;49.462;11.000;2023-06-14T04:05:17;17.10;99.90
37289;DHT22;23174;49.462;11.000;2023-06-14T04:07:19;16.90;99.90
37289;DHT22;23174;49.462;11.000;2023-06-14T04:09:20;16.80;99.90
37289;DHT22;23174;49.462;11.000;2023-06-14T04:11:20;16.60;99.90
37289;DHT22;23174;49.462;11.000;2023-06-14T04:13:20;16.70;99.90
37289;DHT22;23174;49.462;11.000;2023-06-14T04:15:21;16.60;99.90
37289;DHT22;23174;49.462;11.000;2023-06-14T04:17:21;16.70;99.90
37289;DHT22;23174;49.462;11.000;2023-06-14T04:19:22;16.80;99.90
37289;DHT22;23174;49.462;11.000;2023-06-14T04:21:22;16.80;99.90
37289;DHT22;23174;49.462;11.000;2023-06-14T04:23:23;16.90;99.90
37289;DHT22;23174;49.462;11.000;2023-06-14T04:25:24;16.90;99.90
37289;DHT22;23174;49.462;11.000;2023-06-14T04:27:27;16.90;99.90
37289;DHT22;23174;49.462;11.000;2023-06-14T04:29:31;16.90;99.90
37289;DHT22;23174;49.462;11.000;2023-06-14T04:31:31;16.90;99.90
37289;DHT22;23174;49.462;11.000;2023-06-14T04:33:38;16.90;99.90
37289;DHT22;23174;49.462;11.000;2023-06-14T04:35:46;16.90;99.90
37289;DHT22;23174;49.462;11.000;2023-06-14T04:37:47;16.80;99.90
37289;DHT22;23174;49.462;11.000;2023-06-14T04:39:48;16.90;99.90
37289;DHT22;23174;49.462;11.000;2023-06-14T04:41:49;17.00;99.90
37289;DHT22;23174;49.462;11.000;2023-06-14T04:43:52;16.90;99.90
37289;DHT22;23174;49.462;11.000;2023-06-14T04:45:53;16.90;99.90
37289;DHT22;23174;49.462;11.000;2023-06-14T04:47:55;16.90;99.90
37289;DHT22;23174;49.462;11.000;2023-06-14T04:49:57;17.00;99.90
37289;DHT22;23174;49.462;11.000;2023-06-14T04:51:58;16.80;99.90
37289;DHT22;23174;49.462;11.000;2023-06-14T04:53:59;16.80;99.90
37289;DHT22;23174;49.462;11.000;2023-06-14T04:56:01;16.70;99.90
37289;DHT22;23174;49.462;11.000;2023-06-14T04:58:01;16.70;99.90
37289;DHT22;23174;49.462;11.000;2023-06-14T05:00:02;16.80;99.90
37289;DHT22;23174;49.462;11.000;2023-06-14T05:02:04;16.90;99.90
37289;DHT22;23174;49.462;11.000;2023-06-14T05:04:07;16.90;99.90
37289;DHT22;23174;49.462;11.000;2023-06-14T05:06:07;16.80;99.90
37289;DHT22;23174;49.462;11.000;2023-06-14T05:08:08;16.90;99.90
37289;DHT22;23174;49.462;11.000;2023-06-14T05:10:09;16.80;99.90
37289;DHT22;23174;49.462;11.000;2023-06-14T05:12:10;17.00;99.90
37289;DHT22;23174;49.462;11.000;2023-06-14T05:14:11;16.80;99.90
37289;DHT22;23174;49.462;11.000;2023-06-14T05:16:12;16.80;99.90
37289;DHT22;23174;49.462;11.000;2023-06-14T05:18:13;16.90;99.90
37289;DHT22;23174;49.462;11.000;2023-06-14T05:20:15;17.00;99.90
37289;DHT22;23174;49.462;11.000;2023-06-14T05:22:16;17.00;99.90
37289;DHT22;23174;49.462;11.000;2023-06-14T05:24:16;17.00;99.90
37289;DHT22;23174;49.462;11.000;2023-06-14T05:26:20;17.20;99.90
37289;DHT22;23174;49.462;11.000;2023-06-14T05:28:24;17.20;99.90
37289;DHT22;23174;49.462;11.000;2023-06-14T05:30:24;17.20;99.90
37289;DHT22;23174;49.462;11.000;2023-06-14T05:32:25;17.00;99.90
37289;DHT22;23174;49.462;11.000;2023-06-14T05:34:26;17.20;99.90
37289;DHT22;23174;49.462;11.000;2023-06-14T05:36:26;17.30;99.90
37289;DHT22;23174;49.462;11.000;2023-06-14T05:38:28;17.30;99.90
37289;DHT22;23174;49.462;11.000;2023-06-14T05:40:28;17.20;99.90
37289;DHT22;23174;49.462;11.000;2023-06-14T05:42:29;17.20;99.90
37289;DHT22;23174;49.462;11.000;2023-06-14T05:44:29;17.30;99.90
37289;DHT22;23174;49.462;11.000;2023-06-14T05:46:30;17.30;99.90
37289;DHT22;23174;49.462;11.000;2023-06-14T05:48:31;17.40;99.90
37289;DHT22;23174;49.462;11.000;2023-06-14T05:50:31;17.40;99.90
37289;DHT22;23174;49.462;11.000;2023-06-14T05:52:32;17.40;99.90
37289;DHT22;23174;49.462;11.000;2023-06-14T05:54:32;17.30;99.90
37289;DHT22;23174;49.462;11.000;2023-06-14T05:56:33;17.50;99.90
37289;DHT22;23174;49.462;11.000;2023-06-14T05:58:33;17.50;99.90
37289;DHT22;23174;49.462;11.000;2023-06-14T06:00:34;17.60;99.90
37289;DHT22;23174;49.462;11.000;2023-06-14T06:02:34;17.50;99.90
37289;DHT22;23174;49.462;11.000;2023-06-14T06:04:35;17.50;99.90
37289;DHT22;23174;49.462;11.000;2023-06-14T06:06:36;17.50;99.90
37289;DHT22;23174;49.462;11.000;2023-06-14T06:08:36;17.60;99.90
37289;DHT22;23174;49.462;11.000;2023-06-14T06:10:37;17.60;99.90
37289;DHT22;23174;49.462;11.000;2023-06-14T06:12:37;17.70;99.90
37289;DHT22;23174;49.462;11.000;2023-06-14T06:14:38;17.70;99.90
37289;DHT22;23174;49.462;11.000;2023-06-14T06:16:38;17.70;99.90
37289;DHT22;23174;49.462;11.000;2023-06-14T06:18:39;17.70;99.90
37289;DHT22;23174;49.462;11.000;2023-06-14T06:20:40;17.70;99.90
37289;DHT22;23174;49.462;11.000;2023-06-14T06:22:40;18.00;99.90
37289;DHT22;23174;49.462;11.000;2023-06-14T06:24:40;18.50;99.90
37289;DHT22;23174;49.462;11.000;2023-06-14T06:26:41;18.90;99.90
37289;DHT22;23174;49.462;11.000;2023-06-14T06:28:41;19.00;99.90
37289;DHT22;23174;49.462;11.000;2023-06-14T06:30:42;19.10;99.90
37289;DHT22;23174;49.462;11.000;2023-06-14T06:32:43;19.20;99.90
37289;DHT22;23174;49.462;11.000;2023-06-14T06:34:43;19.20;99.90
37289;DHT22;23174;49.462;11.000;2023-06-14T06:36:44;19.40;99.90
37289;DHT22;23174;49.462;11.000;2023-06-14T06:38:44;19.50;99.90
37289;DHT22;23174;49.462;11.000;2023-06-14T06:40:45;19.40;99.90
37289;DHT22;23174;49.462;11.000;2023-06-14T06:42:46;19.40;99.90
37289;DHT22;23174;49.462;11.000;2023-06-14T06:44:46;19.60;99.90
37289;DHT22;23174;49.462;11.000;2023-06-14T06:46:47;19.60;99.90
37289;DHT22;23174;49.462;11.000;2023-06-14T06:48:47;19.50;99.90
37289;DHT22;23174;49.462;11.000;2023-06-14T06:50:48;19.40;99.90
37289;DHT22;23174;49.462;11.000;2023-06-14T06:52:48;19.50;99.90
37289;DHT22;23174;49.462;11.000;2023-06-14T06:54:49;19.50;99.90
37289;DHT22;23174;49.462;11.000;2023-06-14T06:56:50;19.50;99.90
37289;DHT22;23174;49.462;11.000;2023-06-14T06:58:51;19.50;99.90
37289;DHT22;23174;49.462;11.000;2023-06-14T07:00:51;19.50;99.90
37289;DHT22;23174;49.462;11.000;2023-06-14T07:02:52;19.60;99.90
37289;DHT22;23174;49.462;11.000;2023-06-14T07:04:55;19.60;99.90
37289;DHT22;23174;49.462;11.000;2023-06-14T07:06:55;19.50;99.90
37289;DHT22;23174;49.462;11.000;2023-06-14T07:08:56;19.50;99.90
37289;DHT22;23174;49.462;11.000;2023-06-14T07:11:01;19.60;99.90
37289;DHT22;23174;49.462;11.000;2023-06-14T07:13:02;19.60;99.90
37289;DHT22;23174;49.462;11.000;2023-06-14T07:15:04;19.70;99.90
37289;DHT22;23174;49.462;11.000;2023-06-14T07:17:05;19.70;99.90
37289;DHT22;23174;49.462;11.000;2023-06-14T07:19:06;19.80;99.90
37289;DHT22;23174;49.462;11.000;2023-06-14T07:21:07;19.90;99.90
37289;DHT22;23174;49.462;11.000;2023-06-14T07:23:07;19.80;99.90
37289;DHT22;23174;49.462;11.000;2023-06-14T07:25:09;19.80;99.90
37289;DHT22;23174;49.462;11.000;2023-06-14T07:27:10;19.90;99.90
37289;DHT22;23174;49.462;11.000;2023-06-14T07:29:11;19.80;99.90
37289;DHT22;23174;49.462;11.000;2023-06-14T07:31:11;19.90;99.90
37289;DHT22;23174;49.462;11.000;2023-06-14T07:33:12;19.90;99.90
37289;DHT22;23174;49.462;11.000;2023-06-14T07:35:13;20.00;99.90
37289;DHT22;23174;49.462;11.000;2023-06-14T07:37:14;20.10;99.90
37289;DHT22;23174;49.462;11.000;2023-06-14T07:39:14;20.20;99.90
37289;DHT22;23174;49.462;11.000;2023-06-14T07:41:16;20.40;99.90
37289;DHT22;23174;49.462;11.000;2023-06-14T07:43:16;20.40;99.90
37289;DHT22;23174;49.462;11.000;2023-06-14T07:45:17;20.30;99.90
37289;DHT22;23174;49.462;11.000;2023-06-14T07:47:18;20.20;99.90
37289;DHT22;23174;49.462;11.000;2023-06-14T07:49:18;20.30;99.90
37289;DHT22;23174;49.462;11.000;2023-06-14T07:51:19;20.30;99.90
37289;DHT22;23174;49.462;11.000;2023-06-14T07:53:20;20.30;99.90
37289;DHT22;23174;49.462;11.000;2023-06-14T07:55:20;20.30;99.90
37289;DHT22;23174;49.462;11.000;2023-06-14T07:57:21;20.40;99.90
37289;DHT22;23174;49.462;11.000;2023-06-14T07:59:21;20.40;99.90
37289;DHT22;23174;49.462;11.000;2023-06-14T08:01:22;20.40;99.90
37289;DHT22;23174;49.462;11.000;2023-06-14T08:03:25;20.50;99.90
37289;DHT22;23174;49.462;11.000;2023-06-14T08:05:28;20.60;99.90
37289;DHT22;23174;49.462;11.000;2023-06-14T08:07:28;20.60;99.90
37289;DHT22;23174;49.462;11.000;2023-06-14T08:09:29;20.60;99.90
37289;DHT22;23174;49.462;11.000;2023-06-14T08:11:30;20.70;99.90
37289;DHT22;23174;49.462;11.000;2023-06-14T08:13:30;20.70;99.80
37289;DHT22;23174;49.462;11.000;2023-06-14T08:15:31;20.70;99.10
37289;DHT22;23174;49.462;11.000;2023-06-14T08:17:31;20.70;98.60
37289;DHT22;23174;49.462;11.000;2023-06-14T08:19:32;20.70;98.20
37289;DHT22;23174;49.462;11.000;2023-06-14T08:21:32;20.70;98.30
37289;DHT22;23174;49.462;11.000;2023-06-14T08:23:33;20.70;98.30
37289;DHT22;23174;49.462;11.000;2023-06-14T08:25:34;20.70;98.30
37289;DHT22;23174;49.462;11.000;2023-06-14T08:27:35;20.80;98.30
37289;DHT22;23174;49.462;11.000;2023-06-14T08:29:36;20.90;98.30
37289;DHT22;23174;49.462;11.000;2023-06-14T08:31:36;20.90;99.10
37289;DHT22;23174;49.462;11.000;2023-06-14T08:33:36;20.80;99.10
37289;DHT22;23174;49.462;11.000;2023-06-14T08:35:37;20.90;98.60
37289;DHT22;23174;49.462;11.000;2023-06-14T08:37:40;20.90;98.10
37289;DHT22;23174;49.462;11.000;2023-06-14T08:39:41;21.00;97.70
37289;DHT22;23174;49.462;11.000;2023-06-14T08:41:45;21.00;97.60
37289;DHT22;23174;49.462;11.000;2023-06-14T08:43:47;21.10;97.70
37289;DHT22;23174;49.462;11.000;2023-06-14T08:45:48;21.20;97.70
37289;DHT22;23174;49.462;11.000;2023-06-14T08:47:54;21.20;98.50
37289;DHT22;23174;49.462;11.000;2023-06-14T08:49:58;21.20;98.40
37289;DHT22;23174;49.462;11.000;2023-06-14T08:52:00;21.30;97.90
37289;DHT22;23174;49.462;11.000;2023-06-14T08:54:01;21.40;97.90
37289;DHT22;23174;49.462;11.000;2023-06-14T08:56:02;21.40;98.00
37289;DHT22;23174;49.462;11.000;2023-06-14T08:58:05;21.40;98.30
37289;DHT22;23174;49.462;11.000;2023-06-14T09:00:06;21.30;98.40
37289;DHT22;23174;49.462;11.000;2023-06-14T09:02:12;21.30;98.40
37289;DHT22;23174;49.462;11.000;2023-06-14T09:04:14;21.30;98.30
37289;DHT22;23174;49.462;11.000;2023-06-14T09:06:16;21.30;98.40
37289;DHT22;23174;49.462;11.000;2023-06-14T09:08:18;21.30;98.30
37289;DHT22;23174;49.462;11.000;2023-06-14T09:10:22;21.40;98.40
37289;DHT22;23174;49.462;11.000;2023-06-14T09:12:23;21.40;98.50
37289;DHT22;23174;49.462;11.000;2023-06-14T09:14:24;21.40;98.40
37289;DHT22;23174;49.462;11.000;2023-06-14T09:16:25;21.30;98.00
37289;DHT22;23174;49.462;11.000;2023-06-14T09:18:43;21.30;97.60
37289;DHT22;23174;49.462;11.000;2023-06-14T09:20:44;21.40;97.60
37289;DHT22;23174;49.462;11.000;2023-06-14T09:22:47;21.50;96.70
37289;DHT22;23174;49.462;11.000;2023-06-14T09:24:47;21.60;96.90
37289;DHT22;23174;49.462;11.000;2023-06-14T09:26:48;21.80;96.20
37289;DHT22;23174;49.462;11.000;2023-06-14T09:28:50;21.70;95.90
37289;DHT22;23174;49.462;11.000;2023-06-14T09:30:51;21.70;96.80
37289;DHT22;23174;49.462;11.000;2023-06-14T09:32:51;21.80;97.00
37289;DHT22;23174;49.462;11.000;2023-06-14T09:34:52;21.70;96.80
37289;DHT22;23174;49.462;11.000;2023-06-14T09:36:54;21.60;96.90
37289;DHT22;23174;49.462;11.000;2023-06-14T09:38:56;21.60;97.00
37289;DHT22;23174;49.462;11.000;2023-06-14T09:40:58;21.60;96.90
37289;DHT22;23174;49.462;11.000;2023-06-14T09:42:59;21.70;97.00
37289;DHT22;23174;49.462;11.000;2023-06-14T09:45:00;21.80;96.90
37289;DHT22;23174;49.462;11.000;2023-06-14T09:47:02;21.90;96.60
37289;DHT22;23174;49.462;11.000;2023-06-14T09:49:04;21.90;96.40
37289;DHT22;23174;49.462;11.000;2023-06-14T09:51:05;21.90;96.30
37289;DHT22;23174;49.462;11.000;2023-06-14T09:53:07;21.90;96.10
37289;DHT22;23174;49.462;11.000;2023-06-14T09:55:12;21.90;95.80
37289;DHT22;23174;49.462;11.000;2023-06-14T09:57:15;22.00;95.60
37289;DHT22;23174;49.462;11.000;2023-06-14T09:59:19;22.00;95.70
37289;DHT22;23174;49.462;11.000;2023-06-14T10:01:23;22.00;95.70
37289;DHT22;23174;49.462;11.000;2023-06-14T10:03:30;22.00;95.80
37289;DHT22;23174;49.462;11.000;2023-06-14T10:05:31;22.10;95.20
37289;DHT22;23174;49.462;11.000;2023-06-14T10:07:55;22.10;94.60
37289;DHT22;23174;49.462;11.000;2023-06-14T10:09:59;22.00;94.30
37289;DHT22;23174;49.462;11.000;2023-06-14T10:12:01;21.90;94.40
37289;DHT22;23174;49.462;11.000;2023-06-14T10:14:04;21.90;94.60
37289;DHT22;23174;49.462;11.000;2023-06-14T10:16:24;21.90;94.80
37289;DHT22;23174;49.462;11.000;2023-06-14T10:18:35;22.00;95.00
37289;DHT22;23174;49.462;11.000;2023-06-14T10:20:48;22.10;94.90
37289;DHT22;23174;49.462;11.000;2023-06-14T10:23:05;22.00;94.90
37289;DHT22;23174;49.462;11.000;2023-06-14T10:25:13;22.10;94.90
37289;DHT22;23174;49.462;11.000;2023-06-14T10:27:25;22.10;94.80
37289;DHT22;23174;49.462;11.000;2023-06-14T10:29:29;22.10;94.30
37289;DHT22;23174;49.462;11.000;2023-06-14T10:31:49;22.20;94.50
37289;DHT22;23174;49.462;11.000;2023-06-14T10:36:30;22.10;93.70
37289;DHT22;23174;49.462;11.000;2023-06-14T10:38:31;22.20;94.20
37289;DHT22;23174;49.462;11.000;2023-06-14T10:40:34;22.30;93.90
37289;DHT22;23174;49.462;11.000;2023-06-14T10:42:35;22.20;93.50
37289;DHT22;23174;49.462;11.000;2023-06-14T10:46:41;22.30;93.30
37289;DHT22;23174;49.462;11.000;2023-06-14T10:48:46;22.20;93.20
37289;DHT22;23174;49.462;11.000;2023-06-14T10:50:47;22.20;92.70
37289;DHT22;23174;49.462;11.000;2023-06-14T10:52:49;22.10;92.40
37289;DHT22;23174;49.462;11.000;2023-06-14T10:57:06;22.20;92.70
37289;DHT22;23174;49.462;11.000;2023-06-14T10:59:07;22.30;91.80
37289;DHT22;23174;49.462;11.000;2023-06-14T11:01:08;22.50;91.40
37289;DHT22;23174;49.462;11.000;2023-06-14T11:03:51;22.40;91.00
37289;DHT22;23174;49.462;11.000;2023-06-14T11:05:55;22.30;91.60
37289;DHT22;23174;49.462;11.000;2023-06-14T11:08:39;22.30;92.10
37289;DHT22;23174;49.462;11.000;2023-06-14T11:10:41;22.40;92.30
37289;DHT22;23174;49.462;11.000;2023-06-14T11:12:47;22.50;92.10
37289;DHT22;23174;49.462;11.000;2023-06-14T11:14:48;22.40;91.30
37289;DHT22;23174;49.462;11.000;2023-06-14T11:16:49;22.40;91.60
37289;DHT22;23174;49.462;11.000;2023-06-14T11:18:50;22.40;90.60
37289;DHT22;23174;49.462;11.000;2023-06-14T11:20:50;22.40;90.90
37289;DHT22;23174;49.462;11.000;2023-06-14T11:22:52;22.40;91.00
37289;DHT22;23174;49.462;11.000;2023-06-14T11:24:52;22.40;90.90
37289;DHT22;23174;49.462;11.000;2023-06-14T11:26:55;22.60;91.70
37289;DHT22;23174;49.462;11.000;2023-06-14T11:29:00;22.60;91.60
37289;DHT22;23174;49.462;11.000;2023-06-14T11:31:02;22.70;91.50
37289;DHT22;23174;49.462;11.000;2023-06-14T11:33:03;22.80;91.20
37289;DHT22;23174;49.462;11.000;2023-06-14T11:35:04;22.80;91.40
37289;DHT22;23174;49.462;11.000;2023-06-14T11:37:05;22.80;91.20
37289;DHT22;23174;49.462;11.000;2023-06-14T11:39:06;22.80;91.60
37289;DHT22;23174;49.462;11.000;2023-06-14T11:41:09;22.80;91.70
37289;DHT22;23174;49.462;11.000;2023-06-14T11:43:10;22.60;91.50
37289;DHT22;23174;49.462;11.000;2023-06-14T11:45:12;22.60;91.60
37289;DHT22;23174;49.462;11.000;2023-06-14T11:47:13;22.60;91.70
37289;DHT22;23174;49.462;11.000;2023-06-14T11:49:14;22.80;91.70
37289;DHT22;23174;49.462;11.000;2023-06-14T11:51:14;22.80;91.30
37289;DHT22;23174;49.462;11.000;2023-06-14T11:53:15;22.70;91.10
37289;DHT22;23174;49.462;11.000;2023-06-14T11:55:17;22.70;91.40
37289;DHT22;23174;49.462;11.000;2023-06-14T11:57:20;22.60;91.30
37289;DHT22;23174;49.462;11.000;2023-06-14T11:59:21;22.70;91.40
37289;DHT22;23174;49.462;11.000;2023-06-14T12:01:21;22.60;91.20
37289;DHT22;23174;49.462;11.000;2023-06-14T12:03:26;22.60;91.10
37289;DHT22;23174;49.462;11.000;2023-06-14T12:05:27;22.60;91.20
37289;DHT22;23174;49.462;11.000;2023-06-14T12:07:30;22.60;91.20
37289;DHT22;23174;49.462;11.000;2023-06-14T12:09:32;22.60;91.60
37289;DHT22;23174;49.462;11.000;2023-06-14T12:11:34;22.60;91.20
37289;DHT22;23174;49.462;11.000;2023-06-14T12:13:38;22.60;91.40
37289;DHT22;23174;49.462;11.000;2023-06-14T12:15:40;22.70;91.20
37289;DHT22;23174;49.462;11.000;2023-06-14T12:17:42;22.50;91.50
37289;DHT22;23174;49.462;11.000;2023-06-14T12:19:44;22.50;91.20
37289;DHT22;23174;49.462;11.000;2023-06-14T12:21:48;22.50;91.10
37289;DHT22;23174;49.462;11.000;2023-06-14T12:23:49;22.60;91.00
37289;DHT22;23174;49.462;11.000;2023-06-14T12:25:51;22.60;91.00
37289;DHT22;23174;49.462;11.000;2023-06-14T12:27:54;22.60;90.40
37289;DHT22;23174;49.462;11.000;2023-06-14T12:30:04;22.60;92.10
37289;DHT22;23174;49.462;11.000;2023-06-14T12:32:07;22.80;91.40
37289;DHT22;23174;49.462;11.000;2023-06-14T12:34:08;22.70;90.30
37289;DHT22;23174;49.462;11.000;2023-06-14T12:36:10;22.70;90.90
37289;DHT22;23174;49.462;11.000;2023-06-14T12:38:10;22.80;90.90
37289;DHT22;23174;49.462;11.000;2023-06-14T12:40:12;22.90;90.90
37289;DHT22;23174;49.462;11.000;2023-06-14T12:42:12;23.20;91.10
37289;DHT22;23174;49.462;11.000;2023-06-14T12:44:15;23.20;90.80
37289;DHT22;23174;49.462;11.000;2023-06-14T12:46:15;23.20;90.40